CET,Max TemperatureF,Mean TemperatureF,Min TemperatureF,Max Dew PointF,MeanDew PointF,Min DewpointF,Max Humidity, Mean Humidity, Min Humidity, Max Sea Level PressureIn, Mean Sea Level PressureIn, Min Sea Level PressureIn, Max VisibilityMiles, Mean VisibilityMiles, Min VisibilityMiles, Max Wind SpeedMPH, Mean Wind SpeedMPH, Max Gust SpeedMPH,PrecipitationIn, CloudCover, Events, WindDirDegrees
2012-10-1,71,65,59,63,60,52,100,86,64,30.06,30.03,30.01,6,6,1,14,6,,0.00,3,Rain-Thunderstorm,93
2012-10-2,69,62,55,63,58,55,100,86,68,30.06,30.03,30.01,6,6,5,10,5,,0.00,2,,317
2012-10-3,71,63,55,59,56,54,100,80,53,30.09,30.06,30.04,6,6,4,8,5,,0.00,2,,308
2012-10-4,69,63,57,59,57,54,94,81,64,30.06,30.04,30.01,6,6,6,13,7,,0.00,3,,328
2012-10-5,69,62,55,59,55,52,94,80,60,30.15,30.11,30.06,6,6,5,9,6,,0.00,3,,1
2012-10-6,71,63,55,61,57,54,94,78,60,30.15,30.11,30.06,6,6,4,12,5,,0.00,3,,304
2012-10-7,73,66,59,61,59,57,94,82,60,30.06,29.96,29.89,6,6,4,15,6,,0.00,4,Rain,310
2012-10-8,66,62,57,59,54,50,100,78,64,30.09,30.04,29.98,6,6,4,10,6,,0.00,4,,82
2012-10-9,68,62,57,57,55,50,94,78,64,29.98,29.89,29.83,6,6,4,8,3,,0.00,4,Rain,51
2012-10-10,66,62,59,59,57,57,94,85,73,29.89,29.86,29.80,5,3,2,10,4,,0.00,5,,121
2012-10-11,64,60,57,57,56,54,100,85,73,29.92,29.87,29.86,6,3,1,8,4,,0.00,5,,95
2012-10-12,66,60,53,57,55,52,100,86,68,29.89,29.85,29.83,3,2,2,8,4,,0.00,4,,256
2012-10-13,64,58,53,57,54,50,100,84,72,29.95,29.90,29.86,6,5,2,9,6,,0.00,5,Rain-Thunderstorm,71
2012-10-14,62,56,51,55,54,50,100,90,77,29.86,29.75,29.68,6,5,2,13,5,,0.00,4,Rain-Thunderstorm,89
2012-10-15,57,54,48,55,51,43,100,89,71,29.71,29.60,29.53,6,5,1,20,8,31,0.00,6,Rain,56
2012-10-16,64,52,41,45,42,36,93,72,37,30.04,29.84,29.71,6,6,6,10,5,,0.00,4,,320
2012-10-17,57,52,46,50,47,43,88,80,72,30.24,30.17,30.04,6,6,4,8,5,,0.00,6,,354
2012-10-18,64,58,51,54,52,48,100,84,63,30.24,30.22,30.18,6,5,3,7,4,,0.00,3,,269
2012-10-19,66,60,53,55,54,52,94,84,64,30.24,30.22,30.18,5,4,2,7,3,,0.00,3,,313
2012-10-20,68,58,48,55,52,46,100,82,60,30.21,30.17,30.12,6,4,2,7,5,,0.00,2,,355
2012-10-21,69,60,50,55,53,48,100,82,56,30.15,30.09,30.04,6,4,3,7,5,,0.00,,,354
2012-10-22,69,60,51,55,54,50,94,80,56,30.12,30.08,30.06,5,5,3,8,6,,0.00,,,9
2012-10-23,71,61,51,57,53,50,94,79,57,30.15,30.11,30.09,5,4,3,8,5,,0.00,,,360
2012-10-24,66,58,50,55,50,46,94,81,64,30.09,30.04,30.01,5,3,2,8,5,,0.00,1,,360
2012-10-25,66,56,46,54,49,43,94,79,60,30.01,29.94,29.86,5,3,1,8,4,,0.00,3,,7
2012-10-26,55,53,51,55,53,48,100,94,82,29.89,29.72,29.44,2,1,0,7,4,,0.00,5,Fog-Rain,47
2012-10-27,57,54,50,55,54,48,100,96,82,29.42,29.20,29.12,6,2,1,9,3,22,0.00,6,Rain-Thunderstorm,184
2012-10-28,51,45,39,48,42,37,100,91,71,29.65,29.39,29.15,6,5,3,12,6,,0.00,5,Rain,42
2012-10-29,50,42,35,41,37,34,100,84,54,29.89,29.79,29.68,6,6,6,8,4,,0.00,3,,346
2012-10-30,46,40,35,41,37,32,93,82,66,29.89,29.87,29.83,6,6,4,8,5,,0.00,6,,26
2012-10-31,51,46,42,46,43,41,100,84,67,29.89,29.68,29.30,6,5,3,12,3,,0.00,6,Rain,343